Main page
METAR-TAF:

METAR-TAF

Airports :

Petropavl Airport

Petropavl, Kazakhstan

latitude: 54-46-28N, longitude: 069-11-06E, elevation: 139 m

Current weather observation

The report was made 42 minutes ago, at 08:00 UTC
Wind 8 kt from the Southwest
Temperature -11°C
Humidity 78%
Pressure 1032 hPa
Visibility 10 km or more
no clouds below 1500 m and no cumulonimbus

METAR: UACP 220800Z 22004MPS CAVOK M11/M14 Q1032 R23/4/0552 NOSIG RMK QFE761/1015

Time: 14:42 (08:42 UTC)

Forecast

The report was made 42 minutes ago, at 08:00 UTC
Forecast valid from 22 at 09 UTC to 22 at 18 UTC
Wind 10 kt from the Southwest
Visibility 10 km or more
Broken clouds at a height of 2000 ft
Temporary
from 22 at 09 UTC to 22 at 15 UTC
Visibility: 4000 m
Scattered clouds at a height of 1100 ft
light snow

TAF: UACP 220800Z 2209/2218 22005MPS 9999 BKN020 TEMPO 2209/2215 4000 -SN SCT011

Weather observations and forecasts of more than 4000 airports (METAR and TAF reports).

The available stations are represented by yellow and red dots on the map.

Hover mouse over dot to see the name of the station.

Then click to see weather observations and forecasts.

To change the map : click on the green buttons with a black cross to zoom in, on the green button with a dash to zoom out, or on the green arrows for adjacent maps.


METAR-TAF: